Time;durP1;ratioP1;P1;durP2;ratioP2;P2;SDS_P1;SDS_P2;PMS_P1;PMS_P2;Temp;Humidity;BMP_temperature;BMP_pressure;BME280_temperature;BME280_humidity;BME280_pressure;Samples;Min_cycle;Max_cycle;Signal;HPM_P1;HPM_P2
2021/06/20 00:00:16;;;;;;;12.52;8.10;;;17.00;74.70;;;;;;5034390;28;20034;-79
2021/06/20 00:02:43;;;;;;;17.50;8.83;;;17.00;74.80;;;;;;5034458;28;20033;-79
2021/06/20 00:05:11;;;;;;;12.48;8.05;;;17.00;75.00;;;;;;5016658;28;20507;-79
2021/06/20 00:07:39;;;;;;;19.00;8.60;;;17.00;75.00;;;;;;5032727;28;20049;-79
2021/06/20 00:10:05;;;;;;;11.25;7.30;;;17.00;75.20;;;;;;5032891;28;20068;-78
2021/06/20 00:12:31;;;;;;;15.45;7.65;;;17.00;75.00;;;;;;5034289;28;20380;-82
2021/06/20 00:14:57;;;;;;;13.82;7.03;;;17.00;75.10;;;;;;5033100;28;20026;-80
2021/06/20 00:17:23;;;;;;;14.20;6.78;;;17.00;75.10;;;;;;5032600;28;20404;-79
2021/06/20 00:19:49;;;;;;;10.32;6.70;;;17.00;75.00;;;;;;5032541;28;20033;-78
2021/06/20 00:22:14;;;;;;;9.15;6.32;;;17.00;75.10;;;;;;5000096;28;20029;-80
2021/06/20 00:24:40;;;;;;;9.68;7.07;;;17.00;75.20;;;;;;5016197;28;20037;-79
2021/06/20 00:27:06;;;;;;;10.13;7.28;;;17.00;75.80;;;;;;5015830;28;20084;-80
2021/06/20 00:29:32;;;;;;;11.93;7.30;;;17.00;75.50;;;;;;5034008;28;20048;-80
2021/06/20 00:31:58;;;;;;;13.48;7.43;;;17.00;75.60;;;;;;5032566;28;20476;-81
2021/06/20 00:34:23;;;;;;;11.32;7.47;;;17.00;75.50;;;;;;5016034;28;20029;-79
2021/06/20 00:36:49;;;;;;;10.73;7.95;;;17.00;75.60;;;;;;5032513;28;20029;-78
2021/06/20 00:39:15;;;;;;;20.65;9.07;;;17.00;75.80;;;;;;5015469;28;20034;-80
2021/06/20 00:41:40;;;;;;;14.98;8.75;;;17.00;75.80;;;;;;5033826;28;20468;-80
2021/06/20 00:44:06;;;;;;;12.48;9.10;;;17.00;75.90;;;;;;5032396;28;20552;-79
2021/06/20 00:46:32;;;;;;;13.40;8.57;;;17.00;76.00;;;;;;4999463;28;20029;-79
2021/06/20 00:48:57;;;;;;;14.50;9.35;;;16.90;76.20;;;;;;4999425;28;20114;-80
2021/06/20 00:51:23;;;;;;;15.05;8.75;;;16.90;76.50;;;;;;4999397;28;20033;-79
2021/06/20 00:53:49;;;;;;;13.15;9.40;;;16.80;76.60;;;;;;4999254;28;20032;-79
2021/06/20 00:56:15;;;;;;;13.48;9.07;;;16.80;76.70;;;;;;5031979;28;20036;-81
2021/06/20 00:58:43;;;;;;;12.93;8.77;;;16.80;76.90;;;;;;5031991;28;20061;-78
2021/06/20 01:01:08;;;;;;;11.13;8.60;;;16.70;77.10;;;;;;5033284;28;20057;-79
2021/06/20 01:03:34;;;;;;;11.63;7.63;;;16.70;77.10;;;;;;5015890;28;20468;-80
2021/06/20 01:06:00;;;;;;;12.88;8.80;;;16.70;77.40;;;;;;5031855;28;20040;-78
2021/06/20 01:08:27;;;;;;;11.82;8.25;;;16.60;77.50;;;;;;5031681;28;20048;-78
2021/06/20 01:10:53;;;;;;;17.83;8.63;;;16.70;77.70;;;;;;5031974;28;20025;-78
2021/06/20 01:13:19;;;;;;;16.23;9.82;;;16.70;77.80;;;;;;5015352;28;20025;-80
2021/06/20 01:15:49;;;;;;;15.77;7.90;;;16.70;77.80;;;;;;5015366;28;20033;-79
2021/06/20 01:18:16;;;;;;;11.52;7.47;;;16.70;77.80;;;;;;5032996;28;20109;-79
2021/06/20 01:20:42;;;;;;;12.00;7.68;;;16.70;77.90;;;;;;5015230;28;20030;-79
2021/06/20 01:23:09;;;;;;;7.97;6.95;;;16.70;78.10;;;;;;5031574;28;20029;-81
2021/06/20 01:25:37;;;;;;;10.43;7.05;;;16.60;78.20;;;;;;5031678;28;20025;-79
2021/06/20 01:28:09;;;;;;;10.32;7.75;;;16.70;78.50;;;;;;5031461;28;20083;-79
2021/06/20 01:30:38;;;;;;;12.93;8.40;;;16.70;78.80;;;;;;5031707;28;20022;-79
2021/06/20 01:33:07;;;;;;;16.37;8.47;;;16.60;78.90;;;;;;5032679;28;20021;-81
2021/06/20 01:35:33;;;;;;;10.63;7.90;;;16.60;79.10;;;;;;5031413;28;20557;-79
2021/06/20 01:38:01;;;;;;;14.00;7.85;;;16.70;79.20;;;;;;5047968;28;20041;-79
2021/06/20 01:40:27;;;;;;;12.63;8.27;;;16.70;79.50;;;;;;5031258;28;20021;-80
2021/06/20 01:42:53;;;;;;;9.52;7.40;;;16.70;79.50;;;;;;5014483;28;20500;-80
2021/06/20 01:45:21;;;;;;;10.75;8.27;;;16.70;79.60;;;;;;5032549;28;20041;-77
2021/06/20 01:47:50;;;;;;;12.60;8.70;;;16.60;79.80;;;;;;5030936;28;20499;-79
2021/06/20 01:50:16;;;;;;;11.68;8.82;;;16.60;80.00;;;;;;5030354;28;20030;-78
2021/06/20 01:52:43;;;;;;;13.15;8.38;;;16.60;80.20;;;;;;5014483;28;20468;-78
2021/06/20 01:55:11;;;;;;;14.68;8.35;;;16.60;80.40;;;;;;5030985;28;20095;-79
2021/06/20 01:57:39;;;;;;;10.60;7.75;;;16.60;80.70;;;;;;5030930;28;20048;-78
2021/06/20 02:00:13;;;;;;;9.10;7.30;;;16.50;80.70;;;;;;5032136;28;20458;-78
2021/06/20 02:02:40;;;;;;;13.48;7.32;;;16.40;81.00;;;;;;5047565;28;20026;-80
2021/06/20 02:05:07;;;;;;;10.18;7.25;;;16.40;81.20;;;;;;5014468;28;20468;-80
2021/06/20 02:07:35;;;;;;;8.48;6.90;;;16.40;81.30;;;;;;5030372;28;20061;-78
2021/06/20 02:10:01;;;;;;;12.30;7.88;;;16.30;81.40;;;;;;4998868;28;20037;-79
2021/06/20 02:12:27;;;;;;;11.52;7.53;;;16.20;81.80;;;;;;5030784;28;20021;-80
2021/06/20 02:14:53;;;;;;;11.85;8.52;;;16.10;82.60;;;;;;5030424;28;20033;-78
2021/06/20 02:17:23;;;;;;;10.13;7.28;;;16.10;82.40;;;;;;5014148;28;20025;-79
2021/06/20 02:19:51;;;;;;;11.40;8.25;;;16.10;82.80;;;;;;5031847;28;20021;-80
2021/06/20 02:22:17;;;;;;;11.18;7.70;;;16.00;82.90;;;;;;5014427;28;20057;-78
2021/06/20 02:24:43;;;;;;;13.00;7.95;;;16.00;83.30;;;;;;5030593;28;20120;-78
2021/06/20 02:27:10;;;;;;;12.13;9.25;;;16.00;83.60;;;;;;5013888;28;20040;-78
2021/06/20 02:29:37;;;;;;;13.27;8.07;;;16.00;84.30;;;;;;5031789;28;20482;-80
2021/06/20 02:32:04;;;;;;;14.35;7.90;;;15.90;84.20;;;;;;5030393;28;20053;-79
2021/06/20 02:34:29;;;;;;;11.65;8.57;;;15.90;84.50;;;;;;4997564;28;20036;-79
2021/06/20 02:36:55;;;;;;;15.18;9.43;;;15.90;84.70;;;;;;4997448;28;20029;-78
2021/06/20 02:39:21;;;;;;;13.02;9.07;;;15.90;85.10;;;;;;5014408;28;20030;-79
2021/06/20 02:41:50;;;;;;;13.15;9.55;;;15.90;85.50;;;;;;4997538;28;20483;-80
2021/06/20 02:44:18;;;;;;;14.68;10.10;;;15.90;85.90;;;;;;5031304;28;20021;-78
2021/06/20 02:46:44;;;;;;;14.48;9.40;;;16.00;86.10;;;;;;5030139;28;20570;-78
2021/06/20 02:49:10;;;;;;;12.93;9.68;;;16.00;86.50;;;;;;5030180;28;20029;-78
2021/06/20 02:51:37;;;;;;;14.88;10.07;;;16.10;86.70;;;;;;5013561;28;20121;-78
2021/06/20 02:54:03;;;;;;;11.52;9.13;;;16.10;87.00;;;;;;5029869;28;20384;-77
2021/06/20 02:56:28;;;;;;;16.30;10.85;;;16.10;87.30;;;;;;5013425;28;20045;-79
2021/06/20 02:58:54;;;;;;;12.85;9.45;;;16.10;87.70;;;;;;5013511;28;20037;-80
2021/06/20 03:01:20;;;;;;;13.05;8.73;;;16.10;87.80;;;;;;5030159;28;20431;-78
2021/06/20 03:03:45;;;;;;;12.70;9.50;;;16.10;88.00;;;;;;5013312;28;20128;-80
2021/06/20 03:06:11;;;;;;;12.20;9.00;;;16.10;88.10;;;;;;5031274;28;20036;-78
2021/06/20 03:08:37;;;;;;;16.48;10.75;;;16.20;88.00;;;;;;5029797;28;20100;-80
2021/06/20 03:11:03;;;;;;;13.45;9.65;;;16.20;88.20;;;;;;5031115;28;20028;-77
2021/06/20 03:13:29;;;;;;;11.65;9.25;;;16.10;88.50;;;;;;5031079;28;20022;-78
2021/06/20 03:15:55;;;;;;;14.63;10.88;;;16.10;89.00;;;;;;5013618;28;20064;-76
2021/06/20 03:18:21;;;;;;;17.70;11.32;;;16.10;89.30;;;;;;5029650;28;20033;-77
2021/06/20 03:20:46;;;;;;;13.68;11.55;;;16.10;89.40;;;;;;5013385;28;20535;-79
2021/06/20 03:23:12;;;;;;;15.05;10.45;;;16.10;89.60;;;;;;5029892;28;20040;-80
2021/06/20 03:25:39;;;;;;;13.43;10.90;;;16.10;89.90;;;;;;5029703;28;20030;-78
2021/06/20 03:28:06;;;;;;;12.75;10.02;;;16.20;90.00;;;;;;5013123;28;20065;-79
2021/06/20 03:30:32;;;;;;;11.82;10.40;;;16.20;90.10;;;;;;5031092;28;20460;-79
2021/06/20 03:32:58;;;;;;;12.93;10.70;;;16.20;90.10;;;;;;5029789;28;20025;-77
2021/06/20 03:35:24;;;;;;;12.65;10.23;;;16.20;90.30;;;;;;5030077;28;20040;-81
2021/06/20 03:37:49;;;;;;;16.10;11.95;;;16.20;90.30;;;;;;5013203;28;20404;-80
2021/06/20 03:40:16;;;;;;;12.90;10.55;;;16.20;90.40;;;;;;5013273;28;20531;-78
2021/06/20 03:42:42;;;;;;;17.75;10.75;;;16.20;90.50;;;;;;5013397;28;20128;-77
2021/06/20 03:45:08;;;;;;;14.65;11.93;;;16.20;90.60;;;;;;5029816;28;20163;-78
2021/06/20 03:47:35;;;;;;;11.77;10.40;;;16.20;90.70;;;;;;5029600;28;20484;-80
2021/06/20 03:50:02;;;;;;;16.33;12.57;;;16.20;90.80;;;;;;5029469;28;20068;-77
2021/06/20 03:52:28;;;;;;;18.98;11.07;;;16.20;90.80;;;;;;5029790;28;20030;-79
2021/06/20 03:54:54;;;;;;;15.18;12.35;;;16.30;90.80;;;;;;5013171;28;20034;-79
2021/06/20 03:57:21;;;;;;;17.05;12.52;;;16.30;90.80;;;;;;5013064;28;20037;-78
2021/06/20 03:59:48;;;;;;;17.98;12.15;;;16.30;90.90;;;;;;5030696;28;20025;-78
2021/06/20 04:02:14;;;;;;;18.13;12.18;;;16.30;90.90;;;;;;5029660;28;20036;-79
2021/06/20 04:04:40;;;;;;;13.95;11.13;;;16.30;91.00;;;;;;5013069;28;20535;-77
2021/06/20 04:07:13;;;;;;;18.48;12.02;;;16.30;91.10;;;;;;5029118;28;20072;-79
2021/06/20 04:09:39;;;;;;;14.68;11.32;;;16.30;91.20;;;;;;5029347;28;20033;-81
2021/06/20 04:12:06;;;;;;;15.80;11.85;;;16.30;91.20;;;;;;5013088;28;20403;-79
2021/06/20 04:14:33;;;;;;;14.43;10.98;;;16.20;91.30;;;;;;5031064;28;20500;-78
2021/06/20 04:16:59;;;;;;;14.60;10.80;;;16.20;91.50;;;;;;5016488;28;20038;-78
2021/06/20 04:19:25;;;;;;;14.40;10.38;;;16.20;91.50;;;;;;5032895;28;20040;-78
2021/06/20 04:21:51;;;;;;;16.40;11.10;;;16.30;91.60;;;;;;5032980;28;20029;-80
2021/06/20 04:24:16;;;;;;;15.30;10.93;;;16.30;91.60;;;;;;5034032;28;20117;-79
2021/06/20 04:26:42;;;;;;;19.65;13.50;;;16.40;91.60;;;;;;5032767;28;20474;-80
2021/06/20 04:29:09;;;;;;;13.02;11.25;;;16.40;91.60;;;;;;5034074;28;20095;-78
2021/06/20 04:31:35;;;;;;;13.68;10.75;;;16.40;91.60;;;;;;5032722;28;20026;-78
2021/06/20 04:34:01;;;;;;;14.10;11.68;;;16.40;91.60;;;;;;5032816;28;20449;-80
2021/06/20 04:36:27;;;;;;;14.65;11.57;;;16.50;91.70;;;;;;5016150;28;20171;-78
2021/06/20 04:38:53;;;;;;;14.48;11.63;;;16.50;91.70;;;;;;5015838;28;20057;-79
2021/06/20 04:41:20;;;;;;;14.55;12.30;;;16.50;91.70;;;;;;5032739;28;20036;-79
2021/06/20 04:46:34;;;;;;;17.13;11.30;;;16.50;91.90;;;;;;5033669;28;20025;-81
2021/06/20 04:49:09;;;;;;;11.85;9.90;;;16.40;91.90;;;;;;5033644;28;20032;-80
2021/06/20 04:51:40;;;;;;;18.67;11.55;;;16.50;92.00;;;;;;5015822;28;20062;-78
2021/06/20 04:54:08;;;;;;;16.67;10.73;;;16.50;92.10;;;;;;5032296;28;20091;-79
2021/06/20 04:56:34;;;;;;;13.77;9.32;;;16.50;92.10;;;;;;5032223;28;20499;-79
2021/06/20 04:59:00;;;;;;;14.95;10.73;;;16.50;92.10;;;;;;5032167;28;20148;-79
2021/06/20 05:01:26;;;;;;;13.77;10.85;;;16.60;92.10;;;;;;5032417;28;20607;-79
2021/06/20 05:03:53;;;;;;;14.43;9.25;;;16.60;92.10;;;;;;5031923;28;20049;-80
2021/06/20 05:06:19;;;;;;;15.63;10.05;;;16.70;92.00;;;;;;5033044;28;20030;-80
2021/06/20 05:08:45;;;;;;;13.43;9.25;;;16.70;92.00;;;;;;5032068;28;20026;-80
2021/06/20 05:11:11;;;;;;;12.98;10.02;;;16.70;91.90;;;;;;5033163;28;20096;-79
2021/06/20 05:13:37;;;;;;;11.90;10.23;;;16.80;91.90;;;;;;5033455;28;20101;-79
2021/06/20 05:16:03;;;;;;;14.73;9.93;;;16.80;91.90;;;;;;5015276;28;20037;-77
2021/06/20 05:18:29;;;;;;;12.18;9.55;;;16.90;92.00;;;;;;5031860;28;20030;-79
2021/06/20 05:20:54;;;;;;;16.35;10.45;;;16.90;92.00;;;;;;5015538;28;20388;-80
2021/06/20 05:23:21;;;;;;;15.38;11.02;;;16.90;91.90;;;;;;5032135;28;20026;-80
2021/06/20 05:25:47;;;;;;;11.35;10.07;;;17.00;92.00;;;;;;5033010;28;20072;-79
2021/06/20 05:28:13;;;;;;;14.18;9.93;;;17.00;92.00;;;;;;5031631;28;20040;-81
2021/06/20 05:30:39;;;;;;;14.18;11.02;;;17.00;91.90;;;;;;5015212;28;20384;-78
2021/06/20 05:33:05;;;;;;;17.92;10.45;;;17.10;92.00;;;;;;5031501;28;20036;-78
2021/06/20 05:35:31;;;;;;;16.02;10.35;;;17.10;91.90;;;;;;5031514;28;20030;-79
2021/06/20 05:37:56;;;;;;;14.45;10.70;;;17.10;91.90;;;;;;5031334;28;20124;-79
2021/06/20 05:40:22;;;;;;;14.20;10.50;;;17.20;92.00;;;;;;5031351;28;20029;-80
2021/06/20 05:42:48;;;;;;;13.52;9.40;;;17.10;92.00;;;;;;4998401;28;20037;-79
2021/06/20 05:45:14;;;;;;;15.30;11.05;;;17.20;92.00;;;;;;5014587;28;20193;-80
2021/06/20 05:47:40;;;;;;;14.15;9.85;;;17.20;92.10;;;;;;5032244;28;20057;-79
2021/06/20 05:50:06;;;;;;;13.80;10.43;;;17.20;92.20;;;;;;5030963;28;20056;-79
2021/06/20 05:52:32;;;;;;;11.93;10.05;;;17.30;92.20;;;;;;5014643;28;20454;-79
2021/06/20 05:54:58;;;;;;;17.50;9.77;;;17.30;92.30;;;;;;5032499;28;20105;-78
2021/06/20 05:57:23;;;;;;;12.20;9.38;;;17.30;92.30;;;;;;5014691;28;20033;-80
2021/06/20 05:59:49;;;;;;;13.23;10.35;;;17.40;92.30;;;;;;5031117;28;20037;-77
2021/06/20 06:02:15;;;;;;;14.52;8.77;;;17.40;92.20;;;;;;5014794;28;20473;-77
2021/06/20 06:04:42;;;;;;;13.35;9.02;;;17.50;92.10;;;;;;5032268;28;20383;-80
2021/06/20 06:07:08;;;;;;;13.10;8.25;;;17.50;92.10;;;;;;5047049;28;20052;-81
2021/06/20 06:09:35;;;;;;;18.45;8.82;;;17.60;92.10;;;;;;5030732;28;20134;-80
2021/06/20 06:12:05;;;;;;;11.20;8.45;;;17.70;92.00;;;;;;5032006;28;20029;-80
2021/06/20 06:14:31;;;;;;;15.20;8.27;;;17.70;91.90;;;;;;5032343;28;20025;-79
2021/06/20 06:16:57;;;;;;;12.45;8.23;;;17.70;91.80;;;;;;5030676;28;20072;-80
2021/06/20 06:19:23;;;;;;;15.68;7.82;;;17.70;91.90;;;;;;5031871;28;20104;-78
2021/06/20 06:21:49;;;;;;;16.65;9.10;;;17.70;92.00;;;;;;5031933;28;20470;-78
2021/06/20 06:24:15;;;;;;;10.07;7.18;;;17.70;91.90;;;;;;5031872;28;20022;-78
2021/06/20 06:26:41;;;;;;;9.57;7.28;;;17.80;91.90;;;;;;5030340;28;20503;-79
2021/06/20 06:29:08;;;;;;;13.73;7.30;;;17.80;92.00;;;;;;5030607;28;20037;-79
2021/06/20 06:31:36;;;;;;;11.30;6.70;;;17.90;92.00;;;;;;5030347;28;20032;-78
2021/06/20 06:34:02;;;;;;;8.15;5.47;;;18.00;91.80;;;;;;5030466;28;20052;-79
2021/06/20 06:36:28;;;;;;;15.77;6.50;;;18.00;91.60;;;;;;5013657;28;20026;-78
2021/06/20 06:38:54;;;;;;;11.85;7.95;;;18.00;91.60;;;;;;5014044;28;20040;-78
2021/06/20 06:41:19;;;;;;;11.45;6.55;;;18.00;91.70;;;;;;4997512;28;20029;-80
2021/06/20 06:43:45;;;;;;;12.23;6.53;;;18.00;91.60;;;;;;5013913;28;20025;-78
2021/06/20 06:46:11;;;;;;;8.77;5.95;;;18.10;91.60;;;;;;5031284;28;20025;-79
2021/06/20 06:48:37;;;;;;;11.40;6.07;;;18.10;91.60;;;;;;5030195;28;20032;-80
2021/06/20 06:51:03;;;;;;;8.05;5.57;;;18.20;91.50;;;;;;5030158;28;20780;-78
2021/06/20 06:53:28;;;;;;;11.15;6.25;;;18.30;91.40;;;;;;5013762;28;20033;-78
2021/06/20 06:55:54;;;;;;;9.52;5.80;;;18.40;91.30;;;;;;5030159;28;20087;-80
2021/06/20 06:58:20;;;;;;;12.23;5.47;;;18.50;91.20;;;;;;4997212;28;20038;-78
2021/06/20 07:00:47;;;;;;;9.32;4.78;;;18.50;91.00;;;;;;5029905;28;20038;-79
2021/06/20 07:03:13;;;;;;;6.28;5.15;;;18.70;90.90;;;;;;5031362;28;20036;-78
2021/06/20 07:05:39;;;;;;;8.45;4.65;;;18.80;90.70;;;;;;5030092;28;20033;-78
2021/06/20 07:08:05;;;;;;;6.53;4.30;;;19.00;90.60;;;;;;5029588;28;20056;-79
2021/06/20 07:10:31;;;;;;;6.60;4.10;;;19.10;90.40;;;;;;5029891;28;20117;-79
2021/06/20 07:12:57;;;;;;;11.50;4.97;;;19.30;90.10;;;;;;5029734;28;20029;-79
2021/06/20 07:15:24;;;;;;;7.53;4.47;;;19.30;89.60;;;;;;5029784;28;20036;-78
2021/06/20 07:17:50;;;;;;;7.22;4.68;;;19.40;89.10;;;;;;5029729;28;20432;-79
2021/06/20 07:20:16;;;;;;;10.68;4.85;;;19.50;88.30;;;;;;5029749;28;20037;-79
2021/06/20 07:22:43;;;;;;;7.97;4.20;;;19.50;87.60;;;;;;5029657;28;20167;-79
2021/06/20 07:25:10;;;;;;;7.93;3.60;;;19.60;87.40;;;;;;5013049;28;20128;-78
2021/06/20 07:27:36;;;;;;;8.20;4.22;;;19.60;86.90;;;;;;5029404;28;20034;-77
2021/06/20 07:30:14;;;;;;;6.95;4.38;;;19.70;86.60;;;;;;5013197;28;20030;-80
2021/06/20 07:32:40;;;;;;;7.18;3.55;;;19.90;86.00;;;;;;5013966;28;20030;-80
2021/06/20 07:35:07;;;;;;;5.07;3.90;;;20.00;85.50;;;;;;5013599;28;20487;-79
2021/06/20 07:37:33;;;;;;;6.57;4.20;;;20.20;84.70;;;;;;5029896;28;20047;-79
2021/06/20 07:39:59;;;;;;;7.10;4.03;;;20.20;84.00;;;;;;5030982;28;20036;-80
2021/06/20 07:42:25;;;;;;;9.45;4.72;;;20.30;83.30;;;;;;5030751;28;20038;-79
2021/06/20 07:44:51;;;;;;;7.35;3.92;;;20.30;82.90;;;;;;5013358;28;20029;-80
2021/06/20 07:47:17;;;;;;;8.25;4.22;;;20.40;82.40;;;;;;5029196;28;20029;-80
2021/06/20 07:49:43;;;;;;;7.88;3.60;;;20.40;81.90;;;;;;5031328;28;20179;-78
2021/06/20 07:52:09;;;;;;;6.38;3.92;;;20.40;81.60;;;;;;5034718;28;20536;-80
2021/06/20 07:54:35;;;;;;;6.72;3.70;;;20.50;81.90;;;;;;5033567;28;20160;-80
2021/06/20 07:57:00;;;;;;;5.03;3.83;;;20.60;81.50;;;;;;5033175;28;20053;-80
2021/06/20 07:59:26;;;;;;;7.47;4.05;;;20.60;81.00;;;;;;5016868;28;20061;-78
2021/06/20 08:01:51;;;;;;;5.85;3.25;;;20.60;80.70;;;;;;5016491;28;20037;-81
2021/06/20 08:04:17;;;;;;;6.93;4.10;;;20.60;80.80;;;;;;5032983;28;20472;-79
2021/06/20 08:06:43;;;;;;;7.78;3.63;;;20.70;80.30;;;;;;5033963;28;20040;-78
2021/06/20 08:09:08;;;;;;;4.97;3.45;;;20.70;79.90;;;;;;5033095;28;20040;-80
2021/06/20 08:11:35;;;;;;;6.20;3.08;;;20.80;79.50;;;;;;5032872;28;20037;-78
2021/06/20 08:14:03;;;;;;;7.32;3.20;;;20.90;79.20;;;;;;5032881;28;20024;-79
2021/06/20 08:16:29;;;;;;;7.80;3.20;;;20.90;78.70;;;;;;5033554;28;20036;-78
2021/06/20 08:18:55;;;;;;;6.00;3.30;;;21.00;78.30;;;;;;5016976;28;20128;-81
2021/06/20 08:21:22;;;;;;;8.20;2.70;;;21.00;78.00;;;;;;5033936;28;20057;-79
2021/06/20 08:23:49;;;;;;;3.90;2.85;;;21.00;77.70;;;;;;5034411;28;20021;-79
2021/06/20 08:26:15;;;;;;;5.20;2.90;;;21.00;76.90;;;;;;5015877;28;20468;-79
2021/06/20 08:28:40;;;;;;;7.82;2.47;;;20.90;76.70;;;;;;5015852;28;20044;-79
2021/06/20 08:31:06;;;;;;;4.72;2.40;;;20.90;76.40;;;;;;4999905;28;20527;-79
2021/06/20 08:33:32;;;;;;;5.03;2.97;;;21.00;76.30;;;;;;5016167;28;20033;-78
2021/06/20 08:35:58;;;;;;;8.10;2.45;;;21.10;76.30;;;;;;5032224;28;20392;-80
2021/06/20 08:38:23;;;;;;;4.75;2.67;;;21.40;76.00;;;;;;5031855;28;20466;-79
2021/06/20 08:40:49;;;;;;;3.92;2.70;;;21.70;76.00;;;;;;5033240;28;20044;-78
2021/06/20 08:43:15;;;;;;;5.03;3.10;;;22.10;75.50;;;;;;5015592;28;20083;-80
2021/06/20 08:45:41;;;;;;;7.05;2.90;;;22.60;74.50;;;;;;5033419;28;20064;-81
2021/06/20 08:48:11;;;;;;;7.22;3.13;;;22.90;73.20;;;;;;5033142;28;20021;-79
2021/06/20 08:50:37;;;;;;;8.63;3.30;;;22.90;72.00;;;;;;5032241;28;20029;-80
2021/06/20 08:53:03;;;;;;;5.40;2.80;;;22.90;71.50;;;;;;5033455;28;20037;-77
2021/06/20 08:55:29;;;;;;;6.38;2.70;;;22.90;71.00;;;;;;5031924;28;20021;-76
2021/06/20 08:58:00;;;;;;;9.18;3.45;;;22.90;70.90;;;;;;5015036;28;20026;-79
2021/06/20 09:00:26;;;;;;;8.23;2.80;;;22.90;70.50;;;;;;5015752;28;20148;-78
2021/06/20 09:02:59;;;;;;;6.63;3.00;;;23.00;70.60;;;;;;5032096;28;20080;-79
2021/06/20 09:05:26;;;;;;;6.82;2.67;;;23.10;70.20;;;;;;5033639;28;20021;-79
2021/06/20 09:07:52;;;;;;;6.68;2.72;;;23.30;69.80;;;;;;5032583;28;20052;-79
2021/06/20 09:10:21;;;;;;;6.55;2.50;;;23.50;69.20;;;;;;5031646;28;20037;-78
2021/06/20 09:12:52;;;;;;;8.63;3.78;;;23.60;68.90;;;;;;5048342;28;20032;-79
2021/06/20 09:15:21;;;;;;;5.72;2.88;;;23.70;68.40;;;;;;5031516;28;20026;-81
2021/06/20 09:18:04;;;;;;;12.80;4.63;;;23.80;67.70;;;;;;5031509;28;20025;-78
2021/06/20 09:20:45;;;;;;;5.28;2.80;;;23.80;67.30;;;;;;5032808;28;20268;-78
2021/06/20 09:23:17;;;;;;;9.82;4.00;;;23.80;67.10;;;;;;5015064;28;20395;-79
2021/06/20 09:25:45;;;;;;;9.70;2.95;;;23.70;66.90;;;;;;5033049;28;20030;-79
2021/06/20 09:28:13;;;;;;;7.57;2.88;;;23.70;66.50;;;;;;5031677;28;20030;-79
2021/06/20 09:30:49;;;;;;;11.93;3.17;;;23.70;66.30;;;;;;5032862;28;20121;-80
2021/06/20 09:33:16;;;;;;;10.45;3.63;;;23.80;66.40;;;;;;5032042;28;20530;-78
2021/06/20 09:35:53;;;;;;;9.48;2.92;;;24.10;66.30;;;;;;5048470;28;20036;-79
2021/06/20 09:38:20;;;;;;;6.10;3.00;;;24.80;66.60;;;;;;5031342;28;20112;-80
2021/06/20 09:40:46;;;;;;;7.25;3.00;;;25.60;65.20;;;;;;5031454;28;20431;-79
2021/06/20 09:43:17;;;;;;;8.65;2.97;;;25.90;63.40;;;;;;5015039;28;20057;-81
2021/06/20 09:45:45;;;;;;;10.35;3.30;;;25.80;62.60;;;;;;5032551;28;20099;-78
2021/06/20 09:48:29;;;;;;;8.05;3.47;;;25.60;62.20;;;;;;5032360;28;20033;-79
2021/06/20 09:50:57;;;;;;;8.23;3.33;;;25.30;62.50;;;;;;5031282;28;20119;-80
2021/06/20 09:53:40;;;;;;;8.05;3.03;;;25.20;62.20;;;;;;5032665;28;20053;-78
2021/06/20 09:56:18;;;;;;;11.82;3.80;;;25.20;62.50;;;;;;5032400;28;20464;-79
2021/06/20 09:58:46;;;;;;;9.15;3.60;;;25.50;61.90;;;;;;5030626;28;20025;-81
2021/06/20 10:01:14;;;;;;;10.07;3.60;;;25.70;61.80;;;;;;5032372;28;20045;-77
2021/06/20 10:03:42;;;;;;;7.53;3.60;;;25.60;60.90;;;;;;5031818;28;20098;-80
2021/06/20 10:06:08;;;;;;;5.72;3.20;;;25.60;60.90;;;;;;5031742;28;20155;-79
2021/06/20 10:08:35;;;;;;;8.48;3.45;;;25.40;60.60;;;;;;5030262;28;20156;-79
2021/06/20 10:11:02;;;;;;;8.52;3.15;;;25.20;60.10;;;;;;5031766;28;20468;-79
2021/06/20 10:13:27;;;;;;;9.20;3.50;;;24.90;60.30;;;;;;5013742;28;20107;-79
2021/06/20 10:15:56;;;;;;;5.93;3.13;;;24.80;60.70;;;;;;5014336;28;20060;-79
2021/06/20 10:18:22;;;;;;;6.88;3.05;;;25.00;61.00;;;;;;5031705;28;20052;-77
2021/06/20 10:20:57;;;;;;;5.93;3.40;;;25.40;60.70;;;;;;5013806;28;20053;-78
2021/06/20 10:23:24;;;;;;;7.35;2.72;;;25.90;59.80;;;;;;5031625;28;20022;-79
2021/06/20 10:25:50;;;;;;;6.35;3.05;;;26.50;59.40;;;;;;5030548;28;20092;-80
2021/06/20 10:28:22;;;;;;;6.85;2.78;;;26.70;58.20;;;;;;5030029;28;20042;-80
2021/06/20 10:30:49;;;;;;;6.07;2.50;;;26.60;57.50;;;;;;5030335;28;20476;-80
2021/06/20 10:33:20;;;;;;;7.75;2.90;;;26.60;57.70;;;;;;4997587;28;20392;-78
2021/06/20 10:35:58;;;;;;;5.35;2.47;;;26.60;57.50;;;;;;5030375;28;20022;-79
2021/06/20 10:38:30;;;;;;;8.15;2.97;;;26.70;57.80;;;;;;5031847;28;20037;-78
2021/06/20 10:40:56;;;;;;;4.72;2.50;;;26.70;56.90;;;;;;5031444;28;20040;-78
2021/06/20 10:43:22;;;;;;;7.60;3.25;;;26.90;56.90;;;;;;5031529;28;20029;-81
2021/06/20 10:45:49;;;;;;;6.03;2.67;;;27.30;56.80;;;;;;5013868;28;20083;-79
2021/06/20 10:48:16;;;;;;;6.10;2.22;;;27.50;56.40;;;;;;5029771;28;20113;-79
2021/06/20 10:50:48;;;;;;;4.22;2.13;;;27.60;55.50;;;;;;5031441;28;20029;-79
2021/06/20 10:53:14;;;;;;;6.90;2.95;;;27.50;55.30;;;;;;5046287;28;20032;-80
2021/06/20 10:55:45;;;;;;;9.38;2.15;;;27.80;55.40;;;;;;5029500;28;20026;-79
2021/06/20 10:58:20;;;;;;;7.07;2.40;;;28.50;55.60;;;;;;5046362;28;20063;-78
2021/06/20 11:00:47;;;;;;;6.18;2.78;;;29.40;55.10;;;;;;5030686;28;20024;-79
2021/06/20 11:03:14;;;;;;;5.63;2.35;;;30.10;53.90;;;;;;5013290;28;20039;-80
2021/06/20 11:05:48;;;;;;;9.05;2.38;;;30.00;52.00;;;;;;5046376;28;20427;-79
2021/06/20 11:08:30;;;;;;;9.38;2.95;;;29.50;51.80;;;;;;5029403;28;20080;-80
2021/06/20 11:11:15;;;;;;;6.13;2.85;;;29.60;51.80;;;;;;5031260;28;20021;-79
2021/06/20 11:13:47;;;;;;;4.60;2.78;;;29.50;51.60;;;;;;5030277;28;20021;-81
2021/06/20 11:16:35;;;;;;;5.80;3.40;;;29.30;51.70;;;;;;5030002;28;20033;-79
2021/06/20 11:19:10;;;;;;;8.70;3.50;;;29.20;51.60;;;;;;5031337;28;20017;-80
2021/06/20 11:21:58;;;;;;;11.30;3.63;;;28.80;51.40;;;;;;5030619;28;20319;-80
2021/06/20 11:24:30;;;;;;;6.38;3.20;;;28.30;51.40;;;;;;5050635;28;20064;-78
2021/06/20 11:27:03;;;;;;;11.60;3.72;;;27.60;51.40;;;;;;5035007;28;20116;-80
2021/06/20 11:29:43;;;;;;;9.00;3.88;;;27.00;51.80;;;;;;5034175;28;20029;-78
2021/06/20 11:32:15;;;;;;;;;;;26.10;52.40;;;;;;5034537;28;20021;-79
2021/06/20 11:34:52;;;;;;;7.18;3.70;;;25.60;53.00;;;;;;5035046;28;19946;-79
2021/06/20 11:37:21;;;;;;;5.53;2.97;;;25.10;53.40;;;;;;5017284;28;20127;-79
2021/06/20 11:39:48;;;;;;;7.22;3.03;;;24.80;54.10;;;;;;5034868;28;20057;-78
2021/06/20 11:42:26;;;;;;;5.25;2.85;;;24.60;54.50;;;;;;5034471;28;20521;-77
2021/06/20 11:45:03;;;;;;;6.85;2.83;;;24.30;55.20;;;;;;5033362;28;20029;-79
2021/06/20 11:47:33;;;;;;;8.52;3.63;;;24.40;55.40;;;;;;5034533;28;20048;-77
2021/06/20 11:50:23;;;;;;;7.90;2.88;;;25.10;56.40;;;;;;5032941;28;20350;-78
2021/06/20 11:53:10;;;;;;;4.57;2.10;;;25.70;54.80;;;;;;5033889;28;20026;-77
2021/06/20 11:55:38;;;;;;;6.28;3.28;;;26.30;54.60;;;;;;5032338;28;20503;-77
2021/06/20 11:58:15;;;;;;;7.32;2.58;;;27.50;54.70;;;;;;5033125;28;20072;-78
2021/06/20 12:00:43;;;;;;;2.42;1.55;;;28.50;52.70;;;;;;5050075;28;20388;-79
2021/06/20 12:03:11;;;;;;;4.47;2.15;;;29.00;51.90;;;;;;5032543;28;20037;-78
2021/06/20 12:05:46;;;;;;;6.50;2.07;;;29.30;50.50;;;;;;5032514;28;20551;-78
2021/06/20 12:08:12;;;;;;;4.53;1.85;;;29.00;50.10;;;;;;5032076;28;20053;-78
2021/06/20 12:10:46;;;;;;;5.25;2.00;;;29.20;50.40;;;;;;5015907;28;20029;-79
2021/06/20 12:13:12;;;;;;;2.53;1.52;;;29.50;50.10;;;;;;5032787;28;20033;-79
2021/06/20 12:15:40;;;;;;;3.92;1.40;;;29.70;49.50;;;;;;5033686;28;20028;-80
2021/06/20 12:18:10;;;;;;;2.65;1.40;;;30.00;49.40;;;;;;5016453;28;20033;-79
2021/06/20 12:20:44;;;;;;;7.22;3.00;;;30.30;48.90;;;;;;5032725;28;20132;-79
2021/06/20 12:23:29;;;;;;;4.20;2.00;;;30.60;48.30;;;;;;5033449;28;20417;-79
2021/06/20 12:25:56;;;;;;;5.55;2.13;;;30.80;47.80;;;;;;5034340;28;20017;-80
2021/06/20 12:28:22;;;;;;;3.17;1.50;;;30.30;47.50;;;;;;5015799;28;20144;-79
2021/06/20 12:30:51;;;;;;;5.13;1.90;;;30.20;47.90;;;;;;5033171;28;20514;-79
2021/06/20 12:33:18;;;;;;;6.50;1.88;;;30.60;48.10;;;;;;5033779;28;20109;-80
2021/06/20 12:35:51;;;;;;;6.18;2.05;;;31.00;47.70;;;;;;5032003;28;20442;-79
2021/06/20 12:38:23;;;;;;;7.15;1.60;;;31.20;46.70;;;;;;5048982;28;20100;-79
2021/06/20 12:40:50;;;;;;;2.17;1.30;;;30.90;46.20;;;;;;5032115;28;20503;-80
2021/06/20 12:43:23;;;;;;;8.32;1.60;;;30.70;46.20;;;;;;5033670;28;20026;-79
2021/06/20 12:46:05;;;;;;;4.97;1.48;;;30.10;45.60;;;;;;5032176;28;20036;-78